sensor_id;sensor_type;location;lat;lon;timestamp;temperature;humidity
59660;DHT22;45534;52.690;6.268;2023-02-08T00:02:01;-1.80;99.90
59660;DHT22;45534;52.690;6.268;2023-02-08T00:04:27;-1.80;99.90
59660;DHT22;45534;52.690;6.268;2023-02-08T00:06:52;-1.80;99.90
59660;DHT22;45534;52.690;6.268;2023-02-08T00:09:18;-1.70;99.90
59660;DHT22;45534;52.690;6.268;2023-02-08T00:11:43;-1.70;99.90
59660;DHT22;45534;52.690;6.268;2023-02-08T00:14:09;-1.80;99.90
59660;DHT22;45534;52.690;6.268;2023-02-08T00:16:35;-1.80;99.90
59660;DHT22;45534;52.690;6.268;2023-02-08T00:19:01;-1.90;99.90
59660;DHT22;45534;52.690;6.268;2023-02-08T00:21:26;-1.90;99.90
59660;DHT22;45534;52.690;6.268;2023-02-08T00:23:52;-1.90;99.90
59660;DHT22;45534;52.690;6.268;2023-02-08T00:26:18;-1.90;99.90
59660;DHT22;45534;52.690;6.268;2023-02-08T00:28:43;-1.90;99.90
59660;DHT22;45534;52.690;6.268;2023-02-08T00:31:09;-1.90;99.90
59660;DHT22;45534;52.690;6.268;2023-02-08T00:33:35;-1.90;99.90
59660;DHT22;45534;52.690;6.268;2023-02-08T00:36:03;-1.90;99.90
59660;DHT22;45534;52.690;6.268;2023-02-08T00:38:29;-2.00;99.90
59660;DHT22;45534;52.690;6.268;2023-02-08T00:40:55;-2.00;99.90
59660;DHT22;45534;52.690;6.268;2023-02-08T00:43:20;-2.00;99.90
59660;DHT22;45534;52.690;6.268;2023-02-08T00:45:46;-2.00;99.90
59660;DHT22;45534;52.690;6.268;2023-02-08T00:48:12;-2.00;99.90
59660;DHT22;45534;52.690;6.268;2023-02-08T00:50:37;-2.00;99.90
59660;DHT22;45534;52.690;6.268;2023-02-08T00:53:03;-2.00;99.90
59660;DHT22;45534;52.690;6.268;2023-02-08T00:55:29;-2.10;99.90
59660;DHT22;45534;52.690;6.268;2023-02-08T00:57:54;-2.10;99.90
59660;DHT22;45534;52.690;6.268;2023-02-08T01:00:20;-2.10;99.90
59660;DHT22;45534;52.690;6.268;2023-02-08T01:02:46;-2.10;99.90
59660;DHT22;45534;52.690;6.268;2023-02-08T01:05:12;-2.10;99.90
59660;DHT22;45534;52.690;6.268;2023-02-08T01:07:40;-2.10;99.90
59660;DHT22;45534;52.690;6.268;2023-02-08T01:10:07;-2.10;99.90
59660;DHT22;45534;52.690;6.268;2023-02-08T01:12:37;-2.10;99.90
59660;DHT22;45534;52.690;6.268;2023-02-08T01:15:03;-2.10;99.90
59660;DHT22;45534;52.690;6.268;2023-02-08T01:17:29;-2.10;99.90
59660;DHT22;45534;52.690;6.268;2023-02-08T01:19:55;-2.10;99.90
59660;DHT22;45534;52.690;6.268;2023-02-08T01:22:21;-2.10;99.90
59660;DHT22;45534;52.690;6.268;2023-02-08T01:24:46;-2.10;99.90
59660;DHT22;45534;52.690;6.268;2023-02-08T01:27:12;-2.10;99.90
59660;DHT22;45534;52.690;6.268;2023-02-08T01:29:37;-2.10;99.90
59660;DHT22;45534;52.690;6.268;2023-02-08T01:32:03;-2.20;99.90
59660;DHT22;45534;52.690;6.268;2023-02-08T01:34:29;-2.20;99.90
59660;DHT22;45534;52.690;6.268;2023-02-08T01:36:54;-2.20;99.90
59660;DHT22;45534;52.690;6.268;2023-02-08T01:39:20;-2.20;99.90
59660;DHT22;45534;52.690;6.268;2023-02-08T01:41:46;-2.20;99.90
59660;DHT22;45534;52.690;6.268;2023-02-08T01:46:46;-2.30;99.90
59660;DHT22;45534;52.690;6.268;2023-02-08T01:49:27;-2.30;99.90
59660;DHT22;45534;52.690;6.268;2023-02-08T01:51:58;-2.30;99.90
59660;DHT22;45534;52.690;6.268;2023-02-08T01:54:31;-2.30;99.90
59660;DHT22;45534;52.690;6.268;2023-02-08T01:56:57;-2.30;99.90
59660;DHT22;45534;52.690;6.268;2023-02-08T01:59:29;-2.30;99.90
59660;DHT22;45534;52.690;6.268;2023-02-08T02:01:58;-2.30;99.90
59660;DHT22;45534;52.690;6.268;2023-02-08T02:04:25;-2.30;99.90
59660;DHT22;45534;52.690;6.268;2023-02-08T02:06:54;-2.30;99.90
59660;DHT22;45534;52.690;6.268;2023-02-08T02:12:20;-2.40;99.90
59660;DHT22;45534;52.690;6.268;2023-02-08T02:14:45;-2.40;99.90
59660;DHT22;45534;52.690;6.268;2023-02-08T02:17:12;-2.40;99.90
59660;DHT22;45534;52.690;6.268;2023-02-08T02:20:00;-2.40;99.90
59660;DHT22;45534;52.690;6.268;2023-02-08T02:28:07;-2.50;99.90
59660;DHT22;45534;52.690;6.268;2023-02-08T02:33:51;-2.50;99.90
59660;DHT22;45534;52.690;6.268;2023-02-08T02:42:22;-2.50;99.90
59660;DHT22;45534;52.690;6.268;2023-02-08T02:50:27;-2.50;99.90
59660;DHT22;45534;52.690;6.268;2023-02-08T02:53:16;-2.50;99.90
59660;DHT22;45534;52.690;6.268;2023-02-08T02:55:47;-2.50;99.90
59660;DHT22;45534;52.690;6.268;2023-02-08T02:58:15;-2.50;99.90
59660;DHT22;45534;52.690;6.268;2023-02-08T03:00:42;-2.60;99.90
59660;DHT22;45534;52.690;6.268;2023-02-08T03:03:23;-2.60;99.90
59660;DHT22;45534;52.690;6.268;2023-02-08T03:05:52;-2.60;99.90
59660;DHT22;45534;52.690;6.268;2023-02-08T03:11:18;-2.80;99.90
59660;DHT22;45534;52.690;6.268;2023-02-08T03:14:00;-2.80;99.90
59660;DHT22;45534;52.690;6.268;2023-02-08T03:19:38;-2.80;99.90
59660;DHT22;45534;52.690;6.268;2023-02-08T03:25:02;-2.80;99.90
59660;DHT22;45534;52.690;6.268;2023-02-08T03:30:46;-2.90;99.90
59660;DHT22;45534;52.690;6.268;2023-02-08T03:33:32;-2.90;99.90
59660;DHT22;45534;52.690;6.268;2023-02-08T03:36:05;-2.90;99.90
59660;DHT22;45534;52.690;6.268;2023-02-08T03:38:39;-3.00;99.90
59660;DHT22;45534;52.690;6.268;2023-02-08T03:41:11;-3.00;99.90
59660;DHT22;45534;52.690;6.268;2023-02-08T03:44:01;-3.00;99.90
59660;DHT22;45534;52.690;6.268;2023-02-08T03:46:35;-3.10;99.90
59660;DHT22;45534;52.690;6.268;2023-02-08T03:49:14;-3.10;99.90
59660;DHT22;45534;52.690;6.268;2023-02-08T03:51:43;-3.00;99.90
59660;DHT22;45534;52.690;6.268;2023-02-08T03:54:21;-3.00;99.90
59660;DHT22;45534;52.690;6.268;2023-02-08T03:56:49;-3.00;99.90
59660;DHT22;45534;52.690;6.268;2023-02-08T03:59:30;-2.90;99.90
59660;DHT22;45534;52.690;6.268;2023-02-08T04:01:59;-2.90;99.90
59660;DHT22;45534;52.690;6.268;2023-02-08T04:04:28;-2.90;99.90
59660;DHT22;45534;52.690;6.268;2023-02-08T04:06:55;-2.90;99.90
59660;DHT22;45534;52.690;6.268;2023-02-08T04:09:21;-2.80;99.90
59660;DHT22;45534;52.690;6.268;2023-02-08T04:11:46;-2.80;99.90
59660;DHT22;45534;52.690;6.268;2023-02-08T04:14:12;-2.80;99.90
59660;DHT22;45534;52.690;6.268;2023-02-08T04:16:38;-2.70;99.90
59660;DHT22;45534;52.690;6.268;2023-02-08T04:19:03;-2.80;99.90
59660;DHT22;45534;52.690;6.268;2023-02-08T04:21:29;-2.70;99.90
59660;DHT22;45534;52.690;6.268;2023-02-08T04:23:55;-2.80;99.90
59660;DHT22;45534;52.690;6.268;2023-02-08T04:26:20;-2.80;99.90
59660;DHT22;45534;52.690;6.268;2023-02-08T04:28:46;-2.80;99.90
59660;DHT22;45534;52.690;6.268;2023-02-08T04:31:12;-2.80;99.90
59660;DHT22;45534;52.690;6.268;2023-02-08T04:33:37;-2.80;99.90
59660;DHT22;45534;52.690;6.268;2023-02-08T04:36:03;-2.80;99.90
59660;DHT22;45534;52.690;6.268;2023-02-08T04:38:30;-2.80;99.90
59660;DHT22;45534;52.690;6.268;2023-02-08T04:40:56;-2.80;99.90
59660;DHT22;45534;52.690;6.268;2023-02-08T04:43:21;-2.80;99.90
59660;DHT22;45534;52.690;6.268;2023-02-08T04:45:49;-2.80;99.90
59660;DHT22;45534;52.690;6.268;2023-02-08T04:48:16;-2.70;99.90
59660;DHT22;45534;52.690;6.268;2023-02-08T04:50:41;-2.70;99.90
59660;DHT22;45534;52.690;6.268;2023-02-08T04:53:07;-2.70;99.90
59660;DHT22;45534;52.690;6.268;2023-02-08T04:55:33;-2.70;99.90
59660;DHT22;45534;52.690;6.268;2023-02-08T04:57:59;-2.70;99.90
59660;DHT22;45534;52.690;6.268;2023-02-08T05:00:25;-2.70;99.90
59660;DHT22;45534;52.690;6.268;2023-02-08T05:02:55;-2.70;99.90
59660;DHT22;45534;52.690;6.268;2023-02-08T05:05:22;-2.70;99.90
59660;DHT22;45534;52.690;6.268;2023-02-08T05:07:48;-2.80;99.90
59660;DHT22;45534;52.690;6.268;2023-02-08T05:10:14;-2.70;99.90
59660;DHT22;45534;52.690;6.268;2023-02-08T05:12:39;-2.70;99.90
59660;DHT22;45534;52.690;6.268;2023-02-08T05:15:05;-2.70;99.90
59660;DHT22;45534;52.690;6.268;2023-02-08T05:17:31;-2.70;99.90
59660;DHT22;45534;52.690;6.268;2023-02-08T05:19:56;-2.70;99.90
59660;DHT22;45534;52.690;6.268;2023-02-08T05:22:22;-2.70;99.90
59660;DHT22;45534;52.690;6.268;2023-02-08T05:24:48;-2.70;99.90
59660;DHT22;45534;52.690;6.268;2023-02-08T05:27:13;-2.70;99.90
59660;DHT22;45534;52.690;6.268;2023-02-08T05:29:39;-2.70;99.90
59660;DHT22;45534;52.690;6.268;2023-02-08T05:32:05;-2.70;99.90
59660;DHT22;45534;52.690;6.268;2023-02-08T05:34:31;-2.70;99.90
59660;DHT22;45534;52.690;6.268;2023-02-08T05:36:57;-2.60;99.90
59660;DHT22;45534;52.690;6.268;2023-02-08T05:39:22;-2.60;99.90
59660;DHT22;45534;52.690;6.268;2023-02-08T05:41:48;-2.60;99.90
59660;DHT22;45534;52.690;6.268;2023-02-08T05:44:14;-2.60;99.90
59660;DHT22;45534;52.690;6.268;2023-02-08T05:46:39;-2.50;99.90
59660;DHT22;45534;52.690;6.268;2023-02-08T05:49:05;-2.60;99.90
59660;DHT22;45534;52.690;6.268;2023-02-08T05:51:31;-2.50;99.90
59660;DHT22;45534;52.690;6.268;2023-02-08T05:53:57;-2.50;99.90
59660;DHT22;45534;52.690;6.268;2023-02-08T05:56:22;-2.50;99.90
59660;DHT22;45534;52.690;6.268;2023-02-08T05:58:48;-2.50;99.90
59660;DHT22;45534;52.690;6.268;2023-02-08T06:01:14;-2.50;99.90
59660;DHT22;45534;52.690;6.268;2023-02-08T06:03:39;-2.50;99.90
59660;DHT22;45534;52.690;6.268;2023-02-08T06:06:06;-2.60;99.90
59660;DHT22;45534;52.690;6.268;2023-02-08T06:08:32;-2.50;99.90
59660;DHT22;45534;52.690;6.268;2023-02-08T06:10:58;-2.50;99.90
59660;DHT22;45534;52.690;6.268;2023-02-08T06:13:24;-2.50;99.90
59660;DHT22;45534;52.690;6.268;2023-02-08T06:15:49;-2.50;99.90
59660;DHT22;45534;52.690;6.268;2023-02-08T06:18:15;-2.50;99.90
59660;DHT22;45534;52.690;6.268;2023-02-08T06:20:41;-2.50;99.90
59660;DHT22;45534;52.690;6.268;2023-02-08T06:23:06;-2.50;99.90
59660;DHT22;45534;52.690;6.268;2023-02-08T06:25:32;-2.50;99.90
59660;DHT22;45534;52.690;6.268;2023-02-08T06:27:58;-2.50;99.90
59660;DHT22;45534;52.690;6.268;2023-02-08T06:30:24;-2.50;99.90
59660;DHT22;45534;52.690;6.268;2023-02-08T06:32:50;-2.50;99.90
59660;DHT22;45534;52.690;6.268;2023-02-08T06:35:15;-2.60;99.90
59660;DHT22;45534;52.690;6.268;2023-02-08T06:37:41;-2.60;99.90
59660;DHT22;45534;52.690;6.268;2023-02-08T06:40:07;-2.60;99.90
59660;DHT22;45534;52.690;6.268;2023-02-08T06:42:34;-2.60;99.90
59660;DHT22;45534;52.690;6.268;2023-02-08T06:45:00;-2.70;99.90
59660;DHT22;45534;52.690;6.268;2023-02-08T06:47:26;-2.70;99.90
59660;DHT22;45534;52.690;6.268;2023-02-08T06:49:52;-2.70;99.90
59660;DHT22;45534;52.690;6.268;2023-02-08T06:52:21;-2.70;99.90
59660;DHT22;45534;52.690;6.268;2023-02-08T06:54:47;-2.70;99.90
59660;DHT22;45534;52.690;6.268;2023-02-08T06:57:12;-2.60;99.90
59660;DHT22;45534;52.690;6.268;2023-02-08T06:59:39;-2.60;99.90
59660;DHT22;45534;52.690;6.268;2023-02-08T07:02:04;-2.60;99.90
59660;DHT22;45534;52.690;6.268;2023-02-08T07:04:30;-2.50;99.90
59660;DHT22;45534;52.690;6.268;2023-02-08T07:06:56;-2.50;99.90
59660;DHT22;45534;52.690;6.268;2023-02-08T07:09:22;-2.50;99.90
59660;DHT22;45534;52.690;6.268;2023-02-08T07:11:48;-2.50;99.90
59660;DHT22;45534;52.690;6.268;2023-02-08T07:14:14;-2.50;99.90
59660;DHT22;45534;52.690;6.268;2023-02-08T07:16:40;-2.50;99.90
59660;DHT22;45534;52.690;6.268;2023-02-08T07:19:06;-2.50;99.90
59660;DHT22;45534;52.690;6.268;2023-02-08T07:21:32;-2.50;99.90
59660;DHT22;45534;52.690;6.268;2023-02-08T07:23:57;-2.50;99.90
59660;DHT22;45534;52.690;6.268;2023-02-08T07:26:23;-2.50;99.90
59660;DHT22;45534;52.690;6.268;2023-02-08T07:28:48;-2.50;99.90
59660;DHT22;45534;52.690;6.268;2023-02-08T07:31:16;-2.50;99.90
59660;DHT22;45534;52.690;6.268;2023-02-08T07:33:42;-2.50;99.90
59660;DHT22;45534;52.690;6.268;2023-02-08T07:36:09;-2.40;99.90
59660;DHT22;45534;52.690;6.268;2023-02-08T07:38:36;-2.40;99.90
59660;DHT22;45534;52.690;6.268;2023-02-08T07:41:04;-2.40;99.90
59660;DHT22;45534;52.690;6.268;2023-02-08T07:43:33;-2.30;99.90
59660;DHT22;45534;52.690;6.268;2023-02-08T07:46:07;-2.30;99.90
59660;DHT22;45534;52.690;6.268;2023-02-08T07:48:33;-2.30;99.90
59660;DHT22;45534;52.690;6.268;2023-02-08T07:50:59;-2.20;99.90
59660;DHT22;45534;52.690;6.268;2023-02-08T07:53:24;-2.20;99.90
59660;DHT22;45534;52.690;6.268;2023-02-08T07:55:50;-2.10;99.90
59660;DHT22;45534;52.690;6.268;2023-02-08T07:58:16;-2.10;99.90
59660;DHT22;45534;52.690;6.268;2023-02-08T08:00:41;-2.00;99.90
59660;DHT22;45534;52.690;6.268;2023-02-08T08:03:07;-2.00;99.90
59660;DHT22;45534;52.690;6.268;2023-02-08T08:05:33;-1.90;99.90
59660;DHT22;45534;52.690;6.268;2023-02-08T08:07:58;-1.90;99.90
59660;DHT22;45534;52.690;6.268;2023-02-08T08:10:24;-1.80;99.90
59660;DHT22;45534;52.690;6.268;2023-02-08T08:12:50;-1.70;99.90
59660;DHT22;45534;52.690;6.268;2023-02-08T08:15:15;-1.60;99.90
59660;DHT22;45534;52.690;6.268;2023-02-08T08:17:42;-1.50;99.90
59660;DHT22;45534;52.690;6.268;2023-02-08T08:20:09;-1.50;99.90
59660;DHT22;45534;52.690;6.268;2023-02-08T08:22:35;-1.40;99.90
59660;DHT22;45534;52.690;6.268;2023-02-08T08:25:00;-1.40;99.90
59660;DHT22;45534;52.690;6.268;2023-02-08T08:27:26;-1.30;99.90
59660;DHT22;45534;52.690;6.268;2023-02-08T08:29:52;-1.30;99.90
59660;DHT22;45534;52.690;6.268;2023-02-08T08:32:18;-1.30;99.90
59660;DHT22;45534;52.690;6.268;2023-02-08T08:34:43;-1.20;99.90
59660;DHT22;45534;52.690;6.268;2023-02-08T08:37:09;-1.20;99.90
59660;DHT22;45534;52.690;6.268;2023-02-08T08:39:35;-1.10;99.90
59660;DHT22;45534;52.690;6.268;2023-02-08T08:42:01;-1.00;99.90
59660;DHT22;45534;52.690;6.268;2023-02-08T08:44:29;-1.00;99.90
59660;DHT22;45534;52.690;6.268;2023-02-08T08:46:55;-1.00;99.90
59660;DHT22;45534;52.690;6.268;2023-02-08T08:49:22;-0.90;99.90
59660;DHT22;45534;52.690;6.268;2023-02-08T08:51:48;-0.90;99.90
59660;DHT22;45534;52.690;6.268;2023-02-08T08:54:14;-0.80;99.90
59660;DHT22;45534;52.690;6.268;2023-02-08T08:56:39;-0.80;99.90
59660;DHT22;45534;52.690;6.268;2023-02-08T08:59:05;-0.70;99.90
59660;DHT22;45534;52.690;6.268;2023-02-08T09:01:31;-0.60;99.90
59660;DHT22;45534;52.690;6.268;2023-02-08T09:03:56;-0.60;99.90
59660;DHT22;45534;52.690;6.268;2023-02-08T09:06:22;-0.50;99.90
59660;DHT22;45534;52.690;6.268;2023-02-08T09:08:48;-0.40;99.90
59660;DHT22;45534;52.690;6.268;2023-02-08T09:11:14;-0.40;99.90
59660;DHT22;45534;52.690;6.268;2023-02-08T09:13:40;-0.30;99.90
59660;DHT22;45534;52.690;6.268;2023-02-08T09:16:12;-0.20;99.90
59660;DHT22;45534;52.690;6.268;2023-02-08T09:18:38;-0.10;99.90
59660;DHT22;45534;52.690;6.268;2023-02-08T09:21:08;0.00;99.90
59660;DHT22;45534;52.690;6.268;2023-02-08T09:23:34;0.10;99.90
59660;DHT22;45534;52.690;6.268;2023-02-08T09:26:04;0.20;99.90
59660;DHT22;45534;52.690;6.268;2023-02-08T09:28:31;0.40;99.90
59660;DHT22;45534;52.690;6.268;2023-02-08T09:30:57;0.50;99.90
59660;DHT22;45534;52.690;6.268;2023-02-08T09:33:26;0.60;99.90
59660;DHT22;45534;52.690;6.268;2023-02-08T09:35:52;0.80;99.90
59660;DHT22;45534;52.690;6.268;2023-02-08T09:38:18;0.90;99.90
59660;DHT22;45534;52.690;6.268;2023-02-08T09:43:32;1.10;99.90
59660;DHT22;45534;52.690;6.268;2023-02-08T09:46:12;1.30;99.90
59660;DHT22;45534;52.690;6.268;2023-02-08T09:48:40;1.40;99.90
59660;DHT22;45534;52.690;6.268;2023-02-08T09:51:36;1.50;99.90
59660;DHT22;45534;52.690;6.268;2023-02-08T09:54:09;1.60;99.90
59660;DHT22;45534;52.690;6.268;2023-02-08T09:56:40;1.70;99.90
59660;DHT22;45534;52.690;6.268;2023-02-08T09:59:28;1.80;99.90
59660;DHT22;45534;52.690;6.268;2023-02-08T10:05:06;2.00;99.90
59660;DHT22;45534;52.690;6.268;2023-02-08T10:07:35;2.10;99.90
59660;DHT22;45534;52.690;6.268;2023-02-08T10:10:04;2.30;99.90
59660;DHT22;45534;52.690;6.268;2023-02-08T10:12:45;2.40;99.90
59660;DHT22;45534;52.690;6.268;2023-02-08T10:15:30;2.50;99.90
59660;DHT22;45534;52.690;6.268;2023-02-08T10:26:23;3.00;99.90
59660;DHT22;45534;52.690;6.268;2023-02-08T10:32:41;3.10;99.90
59660;DHT22;45534;52.690;6.268;2023-02-08T10:35:08;3.20;99.90
59660;DHT22;45534;52.690;6.268;2023-02-08T10:37:38;3.30;99.90
59660;DHT22;45534;52.690;6.268;2023-02-08T10:51:33;3.20;99.90
59660;DHT22;45534;52.690;6.268;2023-02-08T10:53:59;3.20;99.90
59660;DHT22;45534;52.690;6.268;2023-02-08T10:56:36;3.20;99.90
59660;DHT22;45534;52.690;6.268;2023-02-08T10:59:21;3.30;99.90
59660;DHT22;45534;52.690;6.268;2023-02-08T11:01:48;3.40;99.90
59660;DHT22;45534;52.690;6.268;2023-02-08T11:04:15;3.60;99.90
59660;DHT22;45534;52.690;6.268;2023-02-08T11:06:43;3.80;99.90
59660;DHT22;45534;52.690;6.268;2023-02-08T11:09:24;4.00;99.90
59660;DHT22;45534;52.690;6.268;2023-02-08T11:11:51;4.10;99.90
59660;DHT22;45534;52.690;6.268;2023-02-08T11:14:29;4.20;99.90
59660;DHT22;45534;52.690;6.268;2023-02-08T11:16:58;4.30;99.90
59660;DHT22;45534;52.690;6.268;2023-02-08T11:19:33;4.50;99.90
59660;DHT22;45534;52.690;6.268;2023-02-08T11:22:01;4.70;99.90
59660;DHT22;45534;52.690;6.268;2023-02-08T11:24:37;4.80;99.90
59660;DHT22;45534;52.690;6.268;2023-02-08T11:27:37;4.90;99.90
59660;DHT22;45534;52.690;6.268;2023-02-08T11:32:39;5.40;99.90
59660;DHT22;45534;52.690;6.268;2023-02-08T11:35:25;5.60;99.90
59660;DHT22;45534;52.690;6.268;2023-02-08T11:37:53;5.80;99.90
59660;DHT22;45534;52.690;6.268;2023-02-08T11:42:50;6.10;99.90
59660;DHT22;45534;52.690;6.268;2023-02-08T11:45:23;6.30;99.90
59660;DHT22;45534;52.690;6.268;2023-02-08T11:47:50;6.50;99.90
59660;DHT22;45534;52.690;6.268;2023-02-08T11:52:57;6.70;99.90
59660;DHT22;45534;52.690;6.268;2023-02-08T11:55:24;6.80;99.90
59660;DHT22;45534;52.690;6.268;2023-02-08T12:00:37;7.00;99.90
59660;DHT22;45534;52.690;6.268;2023-02-08T12:03:22;7.20;99.90
59660;DHT22;45534;52.690;6.268;2023-02-08T12:11:54;7.60;98.20
59660;DHT22;45534;52.690;6.268;2023-02-08T12:20:00;7.70;96.60
59660;DHT22;45534;52.690;6.268;2023-02-08T12:22:29;7.90;96.20
59660;DHT22;45534;52.690;6.268;2023-02-08T12:30:24;8.30;96.40
59660;DHT22;45534;52.690;6.268;2023-02-08T12:32:57;8.50;97.10
59660;DHT22;45534;52.690;6.268;2023-02-08T12:41:12;9.10;96.90
59660;DHT22;45534;52.690;6.268;2023-02-08T12:44:05;9.20;96.10
59660;DHT22;45534;52.690;6.268;2023-02-08T12:54:57;9.70;95.00
59660;DHT22;45534;52.690;6.268;2023-02-08T12:57:27;9.80;92.80
59660;DHT22;45534;52.690;6.268;2023-02-08T13:00:05;9.80;91.90
59660;DHT22;45534;52.690;6.268;2023-02-08T13:03:30;9.80;91.00
59660;DHT22;45534;52.690;6.268;2023-02-08T13:05:31;9.90;91.40
59660;DHT22;45534;52.690;6.268;2023-02-08T13:08:25;10.10;91.10
59660;DHT22;45534;52.690;6.268;2023-02-08T13:10:56;10.30;90.50
59660;DHT22;45534;52.690;6.268;2023-02-08T13:13:25;10.40;90.00
59660;DHT22;45534;52.690;6.268;2023-02-08T13:18:42;10.60;85.40
59660;DHT22;45534;52.690;6.268;2023-02-08T13:21:17;10.60;82.20
59660;DHT22;45534;52.690;6.268;2023-02-08T13:23:46;10.70;83.40
59660;DHT22;45534;52.690;6.268;2023-02-08T13:26:17;10.90;82.60
59660;DHT22;45534;52.690;6.268;2023-02-08T13:28:49;11.00;72.70
59660;DHT22;45534;52.690;6.268;2023-02-08T13:31:20;11.00;64.10
59660;DHT22;45534;52.690;6.268;2023-02-08T13:33:54;10.90;68.60
59660;DHT22;45534;52.690;6.268;2023-02-08T13:36:31;11.00;66.00
59660;DHT22;45534;52.690;6.268;2023-02-08T13:38:59;11.00;61.50
59660;DHT22;45534;52.690;6.268;2023-02-08T13:41:27;11.00;59.30
59660;DHT22;45534;52.690;6.268;2023-02-08T13:44:06;11.00;60.10
59660;DHT22;45534;52.690;6.268;2023-02-08T13:46:47;11.10;57.80
59660;DHT22;45534;52.690;6.268;2023-02-08T13:52:08;11.20;54.10
59660;DHT22;45534;52.690;6.268;2023-02-08T13:54:34;11.20;52.10
59660;DHT22;45534;52.690;6.268;2023-02-08T13:57:00;11.20;50.30
59660;DHT22;45534;52.690;6.268;2023-02-08T13:59:38;11.40;54.10
59660;DHT22;45534;52.690;6.268;2023-02-08T14:02:17;11.40;53.20
59660;DHT22;45534;52.690;6.268;2023-02-08T14:04:45;11.50;53.70
59660;DHT22;45534;52.690;6.268;2023-02-08T14:12:26;11.80;52.50
59660;DHT22;45534;52.690;6.268;2023-02-08T14:15:06;12.00;52.80
59660;DHT22;45534;52.690;6.268;2023-02-08T14:17:33;12.00;51.20
59660;DHT22;45534;52.690;6.268;2023-02-08T14:20:01;11.90;50.40
59660;DHT22;45534;52.690;6.268;2023-02-08T14:22:38;11.90;51.00
59660;DHT22;45534;52.690;6.268;2023-02-08T14:25:15;11.90;51.50
59660;DHT22;45534;52.690;6.268;2023-02-08T14:30:31;12.30;52.20
59660;DHT22;45534;52.690;6.268;2023-02-08T14:35:39;12.50;50.30
59660;DHT22;45534;52.690;6.268;2023-02-08T14:40:49;12.20;48.30
59660;DHT22;45534;52.690;6.268;2023-02-08T14:45:52;12.00;48.70
59660;DHT22;45534;52.690;6.268;2023-02-08T14:48:29;12.00;48.70
59660;DHT22;45534;52.690;6.268;2023-02-08T14:53:51;12.00;47.70
59660;DHT22;45534;52.690;6.268;2023-02-08T14:59:08;11.80;45.50
59660;DHT22;45534;52.690;6.268;2023-02-08T15:01:55;11.70;45.00
59660;DHT22;45534;52.690;6.268;2023-02-08T15:04:22;11.50;44.60
59660;DHT22;45534;52.690;6.268;2023-02-08T15:09:28;11.40;46.20
59660;DHT22;45534;52.690;6.268;2023-02-08T15:12:04;11.30;46.80
59660;DHT22;45534;52.690;6.268;2023-02-08T15:14:34;11.20;46.60
59660;DHT22;45534;52.690;6.268;2023-02-08T15:17:01;11.00;47.30
59660;DHT22;45534;52.690;6.268;2023-02-08T15:19:33;10.80;47.30
59660;DHT22;45534;52.690;6.268;2023-02-08T15:24:50;10.00;47.30
59660;DHT22;45534;52.690;6.268;2023-02-08T15:27:23;9.40;49.40
59660;DHT22;45534;52.690;6.268;2023-02-08T15:29:49;8.80;50.30
59660;DHT22;45534;52.690;6.268;2023-02-08T15:32:17;8.40;50.20
59660;DHT22;45534;52.690;6.268;2023-02-08T15:34:49;8.00;50.90
59660;DHT22;45534;52.690;6.268;2023-02-08T15:37:16;7.80;50.80
59660;DHT22;45534;52.690;6.268;2023-02-08T15:39:42;7.60;50.50
59660;DHT22;45534;52.690;6.268;2023-02-08T15:42:37;7.40;50.60
59660;DHT22;45534;52.690;6.268;2023-02-08T15:45:20;7.30;50.70
59660;DHT22;45534;52.690;6.268;2023-02-08T15:47:46;7.10;51.20
59660;DHT22;45534;52.690;6.268;2023-02-08T15:50:17;7.00;51.50
59660;DHT22;45534;52.690;6.268;2023-02-08T15:52:43;6.80;51.10
59660;DHT22;45534;52.690;6.268;2023-02-08T15:55:16;6.80;51.50
59660;DHT22;45534;52.690;6.268;2023-02-08T16:00:20;6.60;51.20
59660;DHT22;45534;52.690;6.268;2023-02-08T16:02:59;6.50;51.50
59660;DHT22;45534;52.690;6.268;2023-02-08T16:05:28;6.40;51.50
59660;DHT22;45534;52.690;6.268;2023-02-08T16:07:56;6.30;52.20
59660;DHT22;45534;52.690;6.268;2023-02-08T16:12:53;6.10;52.50
59660;DHT22;45534;52.690;6.268;2023-02-08T16:15:38;6.00;52.80
59660;DHT22;45534;52.690;6.268;2023-02-08T16:18:04;5.90;52.80
59660;DHT22;45534;52.690;6.268;2023-02-08T16:20:33;5.90;53.50
59660;DHT22;45534;52.690;6.268;2023-02-08T16:23:25;5.80;53.90
59660;DHT22;45534;52.690;6.268;2023-02-08T16:25:51;5.70;53.90
59660;DHT22;45534;52.690;6.268;2023-02-08T16:28:29;5.60;54.50
59660;DHT22;45534;52.690;6.268;2023-02-08T16:31:00;5.50;54.60
59660;DHT22;45534;52.690;6.268;2023-02-08T16:33:28;5.50;55.10
59660;DHT22;45534;52.690;6.268;2023-02-08T16:35:55;5.40;56.00
59660;DHT22;45534;52.690;6.268;2023-02-08T16:38:30;5.20;56.00
59660;DHT22;45534;52.690;6.268;2023-02-08T16:40:59;5.00;56.30
59660;DHT22;45534;52.690;6.268;2023-02-08T16:43:37;4.70;56.60
59660;DHT22;45534;52.690;6.268;2023-02-08T16:46:15;4.60;57.00
59660;DHT22;45534;52.690;6.268;2023-02-08T16:49:10;4.30;57.10
59660;DHT22;45534;52.690;6.268;2023-02-08T16:51:36;4.20;57.70
59660;DHT22;45534;52.690;6.268;2023-02-08T16:54:11;4.00;58.20
59660;DHT22;45534;52.690;6.268;2023-02-08T16:56:38;3.90;58.50
59660;DHT22;45534;52.690;6.268;2023-02-08T16:59:07;3.80;58.70
59660;DHT22;45534;52.690;6.268;2023-02-08T17:01:34;3.80;58.80
59660;DHT22;45534;52.690;6.268;2023-02-08T17:04:00;3.70;59.20
59660;DHT22;45534;52.690;6.268;2023-02-08T17:06:33;3.70;59.20
59660;DHT22;45534;52.690;6.268;2023-02-08T17:09:00;3.70;59.40
59660;DHT22;45534;52.690;6.268;2023-02-08T17:11:27;3.60;59.50
59660;DHT22;45534;52.690;6.268;2023-02-08T17:13:52;3.50;59.40
59660;DHT22;45534;52.690;6.268;2023-02-08T17:16:21;3.50;59.60
59660;DHT22;45534;52.690;6.268;2023-02-08T17:18:47;3.50;59.70
59660;DHT22;45534;52.690;6.268;2023-02-08T17:21:13;3.40;59.80
59660;DHT22;45534;52.690;6.268;2023-02-08T17:23:40;3.40;60.00
59660;DHT22;45534;52.690;6.268;2023-02-08T17:26:13;3.40;60.10
59660;DHT22;45534;52.690;6.268;2023-02-08T17:28:39;3.40;60.20
59660;DHT22;45534;52.690;6.268;2023-02-08T17:31:05;3.30;60.50
59660;DHT22;45534;52.690;6.268;2023-02-08T17:33:30;3.30;60.90
59660;DHT22;45534;52.690;6.268;2023-02-08T17:36:01;3.20;61.10
59660;DHT22;45534;52.690;6.268;2023-02-08T17:38:27;3.10;61.40
59660;DHT22;45534;52.690;6.268;2023-02-08T17:40:53;3.00;61.90
59660;DHT22;45534;52.690;6.268;2023-02-08T17:43:18;2.90;62.10
59660;DHT22;45534;52.690;6.268;2023-02-08T17:45:44;2.80;62.50
59660;DHT22;45534;52.690;6.268;2023-02-08T17:48:11;2.60;62.70
59660;DHT22;45534;52.690;6.268;2023-02-08T17:50:41;2.50;63.10
59660;DHT22;45534;52.690;6.268;2023-02-08T17:53:07;2.40;63.60
59660;DHT22;45534;52.690;6.268;2023-02-08T17:55:33;2.30;64.20
59660;DHT22;45534;52.690;6.268;2023-02-08T17:57:59;2.20;64.80
59660;DHT22;45534;52.690;6.268;2023-02-08T18:00:25;2.10;65.40
59660;DHT22;45534;52.690;6.268;2023-02-08T18:02:52;2.00;66.00
59660;DHT22;45534;52.690;6.268;2023-02-08T18:05:21;1.90;66.70
59660;DHT22;45534;52.690;6.268;2023-02-08T18:07:47;1.90;67.40
59660;DHT22;45534;52.690;6.268;2023-02-08T18:10:14;1.90;68.00
59660;DHT22;45534;52.690;6.268;2023-02-08T18:12:40;1.90;68.40
59660;DHT22;45534;52.690;6.268;2023-02-08T18:15:08;1.90;68.80